createdAt,value
2023-04-03T00:00:41.128Z,3.72
2023-04-03T00:01:42.792Z,3.79
2023-04-03T00:02:44.633Z,3.77
2023-04-03T00:03:46.444Z,3.75
2023-04-03T00:04:48.074Z,3.77
2023-04-03T00:05:50.139Z,3.69
2023-04-03T00:06:51.754Z,3.72
2023-04-03T00:07:53.420Z,3.71
2023-04-03T00:08:55.017Z,3.70
2023-04-03T00:09:56.698Z,3.70
2023-04-03T00:10:58.309Z,3.73
2023-04-03T00:11:59.870Z,3.71
2023-04-03T00:13:01.386Z,3.69
2023-04-03T00:14:03.005Z,3.73
2023-04-03T00:15:05.137Z,3.71
2023-04-03T00:16:08.454Z,3.69
2023-04-03T00:17:10.091Z,3.65
2023-04-03T00:18:11.825Z,3.62
2023-04-03T00:19:13.397Z,3.64
2023-04-03T00:20:14.944Z,3.58
2023-04-03T00:21:16.552Z,3.56
2023-04-03T00:22:18.137Z,3.50
2023-04-03T00:23:19.711Z,3.51
2023-04-03T00:24:21.245Z,3.51
2023-04-03T00:25:22.963Z,3.57
2023-04-03T00:26:24.511Z,3.51
2023-04-03T00:27:26.112Z,3.45
2023-04-03T00:28:27.749Z,3.44
2023-04-03T00:29:29.340Z,3.42
2023-04-03T00:30:31.050Z,3.38
2023-04-03T00:31:32.621Z,3.41
2023-04-03T00:32:34.393Z,3.44
2023-04-03T00:33:35.963Z,3.38
2023-04-03T00:34:37.553Z,3.36
2023-04-03T00:35:39.171Z,3.35
2023-04-03T00:36:40.896Z,3.35
2023-04-03T00:37:43.152Z,3.32
2023-04-03T00:38:44.756Z,3.28
2023-04-03T00:39:46.327Z,3.36
2023-04-03T00:40:49.932Z,3.38
2023-04-03T00:41:51.515Z,3.42
2023-04-03T00:42:57.596Z,3.47
2023-04-03T00:43:59.251Z,3.55
2023-04-03T00:45:00.903Z,3.57
2023-04-03T00:46:02.764Z,3.45
2023-04-03T00:47:07.832Z,3.49
2023-04-03T00:48:14.786Z,3.47
2023-04-03T00:49:16.579Z,3.43
2023-04-03T00:50:18.737Z,3.48
2023-04-03T00:51:25.071Z,3.41
2023-04-03T00:52:30.562Z,3.43
2023-04-03T00:53:37.867Z,3.44
2023-04-03T00:54:41.598Z,3.37
2023-04-03T00:55:43.951Z,3.35
2023-04-03T00:56:45.872Z,3.38
2023-04-03T00:57:48.206Z,3.43
2023-04-03T00:59:05.106Z,3.44
2023-04-03T01:00:12.174Z,3.48
2023-04-03T01:01:19.540Z,3.60
2023-04-03T01:02:21.191Z,3.64
2023-04-03T01:03:23.131Z,3.65
2023-04-03T01:04:28.048Z,3.63
2023-04-03T01:05:30.394Z,3.60
2023-04-03T01:06:36.098Z,3.59
2023-04-03T01:07:41.811Z,3.50
2023-04-03T01:08:44.935Z,3.52
2023-04-03T01:09:48.852Z,3.37
2023-04-03T01:10:51.472Z,3.45
2023-04-03T01:11:53.578Z,3.43
2023-04-03T01:12:55.507Z,3.42
2023-04-03T01:13:57.135Z,3.37
2023-04-03T01:15:10.024Z,3.35
2023-04-03T01:16:11.867Z,3.31
2023-04-03T01:17:49.949Z,3.31
2023-04-03T01:18:51.655Z,3.34
2023-04-03T01:20:16.013Z,3.33
2023-04-03T01:21:56.591Z,3.25
2023-04-03T01:23:09.967Z,3.16
2023-04-03T01:24:17.859Z,3.16
2023-04-03T01:25:19.499Z,3.13
2023-04-03T01:26:21.268Z,3.09
2023-04-03T01:27:22.820Z,3.05
2023-04-03T01:28:30.900Z,3.04
2023-04-03T01:29:32.918Z,3.01
2023-04-03T01:30:45.351Z,3.05
2023-04-03T01:31:51.125Z,3.01
2023-04-03T01:32:52.866Z,2.98
2023-04-03T01:33:55.301Z,2.98
2023-04-03T01:34:57.234Z,2.99
2023-04-03T01:35:58.884Z,2.93
2023-04-03T01:37:00.556Z,2.89
2023-04-03T01:38:02.290Z,2.90
2023-04-03T01:39:04.173Z,2.97
2023-04-03T01:40:06.638Z,3.01
2023-04-03T01:41:08.351Z,2.99
2023-04-03T01:42:10.096Z,2.95
2023-04-03T01:43:15.138Z,2.93
2023-04-03T01:44:16.699Z,2.89
2023-04-03T01:45:18.378Z,2.90
2023-04-03T01:46:20.203Z,2.91
2023-04-03T01:47:22.985Z,2.86
2023-04-03T01:48:25.619Z,2.87
2023-04-03T01:49:27.188Z,2.93
2023-04-03T01:50:28.778Z,2.90
2023-04-03T01:51:30.968Z,2.86
2023-04-03T01:52:32.563Z,2.86
2023-04-03T01:53:34.177Z,2.89
2023-04-03T01:54:35.770Z,2.90
2023-04-03T01:55:37.319Z,2.87
2023-04-03T01:56:38.984Z,2.86
2023-04-03T01:57:40.770Z,2.84
2023-04-03T01:58:43.009Z,2.76
2023-04-03T01:59:44.721Z,2.75
2023-04-03T02:00:46.353Z,2.77
2023-04-03T02:01:48.450Z,2.82
2023-04-03T02:02:50.062Z,2.86
2023-04-03T02:03:51.863Z,2.87
2023-04-03T02:04:53.471Z,2.86
2023-04-03T02:05:55.027Z,2.84
2023-04-03T02:06:56.618Z,2.85
2023-04-03T02:07:58.174Z,2.82
2023-04-03T02:08:59.729Z,2.76
2023-04-03T02:10:01.352Z,2.76
2023-04-03T02:11:03.057Z,2.70
2023-04-03T02:12:04.842Z,2.66
2023-04-03T02:13:07.619Z,2.60
2023-04-03T02:14:10.162Z,2.59
2023-04-03T02:15:11.771Z,2.69
2023-04-03T02:16:13.384Z,2.62
2023-04-03T02:17:15.006Z,2.66
2023-04-03T02:18:16.768Z,2.58
2023-04-03T02:19:18.400Z,2.57
2023-04-03T02:20:20.385Z,2.59
2023-04-03T02:21:21.979Z,2.58
2023-04-03T02:22:23.583Z,2.55
2023-04-03T02:23:26.488Z,2.57
2023-04-03T02:24:28.047Z,2.60
2023-04-03T02:25:32.004Z,2.64
2023-04-03T02:26:33.640Z,2.60
2023-04-03T02:27:35.164Z,2.61
2023-04-03T02:28:36.979Z,2.62
2023-04-03T02:29:38.544Z,2.61
2023-04-03T02:30:40.416Z,2.62
2023-04-03T02:31:42.176Z,2.56
2023-04-03T02:32:44.711Z,2.56
2023-04-03T02:33:46.305Z,2.51
2023-04-03T02:34:50.052Z,2.52
2023-04-03T02:35:56.859Z,2.46
2023-04-03T02:36:58.570Z,2.44
2023-04-03T02:38:00.167Z,2.45
2023-04-03T02:39:01.770Z,2.43
2023-04-03T02:40:04.889Z,2.47
2023-04-03T02:41:09.625Z,2.54
2023-04-03T02:42:11.194Z,2.57
2023-04-03T02:43:12.788Z,2.61
2023-04-03T02:44:14.392Z,2.61
2023-04-03T02:45:16.159Z,2.65
2023-04-03T02:46:17.798Z,2.66
2023-04-03T02:47:19.393Z,2.61
2023-04-03T02:48:21.031Z,2.69
2023-04-03T02:49:22.876Z,2.66
2023-04-03T02:50:24.656Z,2.61
2023-04-03T02:51:26.206Z,2.62
2023-04-03T02:52:28.770Z,2.70
2023-04-03T02:53:33.002Z,2.71
2023-04-03T02:54:39.827Z,2.65
2023-04-03T02:55:43.479Z,2.62
2023-04-03T02:56:45.021Z,2.58
2023-04-03T02:57:46.681Z,2.59
2023-04-03T02:58:49.028Z,2.55
2023-04-03T02:59:52.156Z,2.51
2023-04-03T03:00:54.629Z,2.45
2023-04-03T03:01:56.291Z,2.44
2023-04-03T03:02:57.936Z,2.41
2023-04-03T03:04:00.857Z,2.47
2023-04-03T03:05:02.557Z,2.41
2023-04-03T03:06:13.069Z,2.23
2023-04-03T03:07:15.147Z,2.21
2023-04-03T03:08:16.837Z,2.15
2023-04-03T03:09:18.442Z,2.18
2023-04-03T03:10:20.338Z,2.17
2023-04-03T03:11:21.895Z,2.15
2023-04-03T03:12:23.502Z,2.20
2023-04-03T03:13:25.625Z,2.21
2023-04-03T03:14:27.216Z,2.12
2023-04-03T03:15:28.761Z,2.08
2023-04-03T03:16:30.574Z,2.14
2023-04-03T03:17:32.314Z,2.12
2023-04-03T03:18:34.276Z,2.22
2023-04-03T03:19:36.117Z,2.12
2023-04-03T03:20:37.981Z,2.08
2023-04-03T03:21:39.756Z,2.04
2023-04-03T03:22:41.545Z,2.04
2023-04-03T03:23:43.107Z,2.09
2023-04-03T03:24:44.732Z,2.09
2023-04-03T03:25:46.446Z,2.08
2023-04-03T03:26:47.985Z,2.10
2023-04-03T03:27:50.004Z,2.10
2023-04-03T03:28:51.793Z,2.08
2023-04-03T03:29:53.396Z,2.06
2023-04-03T03:30:55.584Z,2.02
2023-04-03T03:31:58.013Z,1.94
2023-04-03T03:32:59.799Z,1.93
2023-04-03T03:34:01.389Z,1.95
2023-04-03T03:35:03.558Z,1.96
2023-04-03T03:36:05.360Z,1.94
2023-04-03T03:37:06.986Z,1.78
2023-04-03T03:38:09.196Z,1.75
2023-04-03T03:39:10.944Z,1.67
2023-04-03T03:40:12.848Z,1.65
2023-04-03T03:41:14.574Z,1.62
2023-04-03T03:42:18.246Z,1.62
2023-04-03T03:43:19.838Z,1.50
2023-04-03T03:44:23.456Z,1.50
2023-04-03T03:45:25.117Z,1.57
2023-04-03T03:46:26.741Z,1.53
2023-04-03T03:47:29.004Z,1.62
2023-04-03T03:48:31.351Z,1.59
2023-04-03T03:49:32.917Z,1.54
2023-04-03T03:50:36.049Z,1.53
2023-04-03T03:51:37.808Z,1.54
2023-04-03T03:52:39.430Z,1.49
2023-04-03T03:53:40.996Z,1.50
2023-04-03T03:54:47.348Z,1.46
2023-04-03T03:55:50.591Z,1.39
2023-04-03T03:56:54.462Z,1.34
2023-04-03T03:57:56.282Z,1.33
2023-04-03T03:58:57.982Z,1.26
2023-04-03T03:59:59.711Z,1.21
2023-04-03T04:01:05.497Z,1.19
2023-04-03T04:02:09.157Z,1.16
2023-04-03T04:03:10.881Z,1.16
2023-04-03T04:04:12.538Z,1.19
2023-04-03T04:05:14.306Z,1.15
2023-04-03T04:06:16.825Z,1.12
2023-04-03T04:07:18.616Z,1.06
2023-04-03T04:08:20.287Z,0.99
2023-04-03T04:09:21.955Z,1.00
2023-04-03T04:10:23.536Z,0.96
2023-04-03T04:11:25.324Z,0.96
2023-04-03T04:12:28.774Z,0.90
2023-04-03T04:13:30.437Z,0.96
2023-04-03T04:14:31.962Z,0.97
2023-04-03T04:15:34.008Z,0.98
2023-04-03T04:16:35.632Z,0.97
2023-04-03T04:17:42.993Z,1.02
2023-04-03T04:18:47.036Z,1.11
2023-04-03T04:19:48.673Z,1.09
2023-04-03T04:20:50.407Z,1.01
2023-04-03T04:21:53.127Z,1.07
2023-04-03T04:22:55.069Z,1.06
2023-04-03T04:23:58.772Z,1.08
2023-04-03T04:25:01.017Z,1.13
2023-04-03T04:26:02.716Z,1.18
2023-04-03T04:27:07.748Z,1.08
2023-04-03T04:28:09.805Z,1.12
2023-04-03T04:29:11.523Z,1.17
2023-04-03T04:30:15.297Z,1.19
2023-04-03T04:31:17.562Z,1.21
2023-04-03T04:32:19.128Z,1.23
2023-04-03T04:33:20.724Z,1.22
2023-04-03T04:34:22.532Z,1.29
2023-04-03T04:35:24.436Z,1.22
2023-04-03T04:36:27.297Z,1.14
2023-04-03T04:37:28.951Z,1.12
2023-04-03T04:38:30.560Z,1.14
2023-04-03T04:39:32.381Z,1.13
2023-04-03T04:40:34.374Z,1.19
2023-04-03T04:41:36.006Z,1.12
2023-04-03T04:42:39.127Z,1.11
2023-04-03T04:43:41.665Z,1.15
2023-04-03T04:44:45.189Z,1.17
2023-04-03T04:45:48.523Z,1.24
2023-04-03T04:46:54.427Z,1.20
2023-04-03T04:47:57.162Z,1.15
2023-04-03T04:48:59.841Z,1.09
2023-04-03T04:50:04.477Z,1.05
2023-04-03T04:51:07.984Z,1.04
2023-04-03T04:52:11.695Z,1.06
2023-04-03T04:53:14.953Z,1.09
2023-04-03T04:54:17.244Z,1.05
2023-04-03T04:55:20.699Z,1.01
2023-04-03T04:56:22.487Z,1.09
2023-04-03T04:57:24.399Z,1.17
2023-04-03T04:58:26.033Z,1.18
2023-04-03T04:59:27.791Z,1.13
2023-04-03T05:00:31.375Z,1.12
2023-04-03T05:01:33.098Z,1.07
2023-04-03T05:02:40.287Z,1.05
2023-04-03T05:03:42.185Z,1.05
2023-04-03T05:04:44.010Z,1.08
2023-04-03T05:05:51.521Z,1.03
2023-04-03T05:06:53.109Z,1.06
2023-04-03T05:07:59.022Z,1.12
2023-04-03T05:09:01.147Z,1.19
2023-04-03T05:10:04.172Z,1.29
2023-04-03T05:11:07.090Z,1.38
2023-04-03T05:12:09.600Z,1.45
2023-04-03T05:13:16.770Z,1.52
2023-04-03T05:14:18.440Z,1.62
2023-04-03T05:15:20.324Z,1.76
2023-04-03T05:16:22.088Z,1.85
2023-04-03T05:17:23.913Z,1.79
2023-04-03T05:18:28.500Z,1.82
2023-04-03T05:19:32.998Z,1.92
2023-04-03T05:20:35.753Z,1.99
2023-04-03T05:21:37.507Z,1.92
2023-04-03T05:22:43.937Z,1.96
2023-04-03T05:23:45.787Z,2.04
2023-04-03T05:24:47.455Z,2.17
2023-04-03T05:25:50.678Z,2.24
2023-04-03T05:26:53.202Z,2.25
2023-04-03T05:27:54.927Z,2.21
2023-04-03T05:28:56.791Z,2.15
2023-04-03T05:29:58.716Z,2.19
2023-04-03T05:31:00.602Z,2.14
2023-04-03T05:32:08.126Z,2.31
2023-04-03T05:33:09.885Z,2.48
2023-04-03T05:34:17.706Z,2.57
2023-04-03T05:35:21.638Z,2.54
2023-04-03T05:36:26.431Z,2.51
2023-04-03T05:37:32.877Z,2.44
2023-04-03T05:38:34.747Z,2.60
2023-04-03T05:39:36.717Z,2.77
2023-04-03T05:40:40.323Z,2.96
2023-04-03T05:41:42.194Z,3.05
2023-04-03T05:42:44.250Z,3.16
2023-04-03T05:43:46.310Z,3.26
2023-04-03T05:44:48.806Z,3.24
2023-04-03T05:45:51.370Z,3.25
2023-04-03T05:46:53.968Z,3.13
2023-04-03T05:47:55.612Z,3.03
2023-04-03T05:48:57.224Z,2.88
2023-04-03T05:50:02.033Z,2.71
2023-04-03T05:51:04.638Z,2.74
2023-04-03T05:52:06.600Z,2.72
2023-04-03T05:53:15.212Z,2.63
2023-04-03T05:54:30.239Z,2.83
2023-04-03T05:55:47.823Z,2.86
2023-04-03T05:56:50.531Z,2.94
2023-04-03T05:57:52.605Z,3.14
2023-04-03T05:58:54.197Z,3.03
2023-04-03T05:59:55.800Z,2.91
2023-04-03T06:00:58.153Z,3.13
2023-04-03T06:01:59.744Z,3.12
2023-04-03T06:03:01.639Z,3.27
2023-04-03T06:04:04.247Z,3.51
2023-04-03T06:05:06.556Z,3.69
2023-04-03T06:06:14.295Z,3.78
2023-04-03T06:07:18.529Z,3.66
2023-04-03T06:08:20.055Z,3.69
2023-04-03T06:09:24.025Z,3.66
2023-04-03T06:10:25.668Z,3.85
2023-04-03T06:11:27.286Z,3.97
2023-04-03T06:12:28.931Z,3.94
2023-04-03T06:13:30.658Z,3.88
2023-04-03T06:14:32.352Z,3.82
2023-04-03T06:15:34.008Z,3.63
2023-04-03T06:16:39.399Z,3.75
2023-04-03T06:17:42.596Z,3.91
2023-04-03T06:18:44.245Z,3.90
2023-04-03T06:19:46.356Z,3.91
2023-04-03T06:20:47.939Z,3.96
2023-04-03T06:21:49.694Z,4.17
2023-04-03T06:22:51.287Z,4.34
2023-04-03T06:23:53.072Z,4.15
2023-04-03T06:24:54.808Z,3.87
2023-04-03T06:25:56.344Z,3.99
2023-04-03T06:26:58.596Z,3.93
2023-04-03T06:28:00.195Z,4.13
2023-04-03T06:29:01.786Z,4.42
2023-04-03T06:30:03.576Z,4.51
2023-04-03T06:31:05.330Z,4.39
2023-04-03T06:32:07.022Z,4.25
2023-04-03T06:33:08.706Z,4.33
2023-04-03T06:34:10.909Z,4.45
2023-04-03T06:35:12.462Z,4.62
2023-04-03T06:36:14.307Z,4.70
2023-04-03T06:37:18.331Z,4.49
2023-04-03T06:38:20.210Z,4.45
2023-04-03T06:39:23.025Z,4.61
2023-04-03T06:40:26.050Z,4.78
2023-04-03T06:41:27.844Z,5.16
2023-04-03T06:42:29.579Z,5.41
2023-04-03T06:43:41.666Z,5.51
2023-04-03T06:44:43.235Z,5.34
2023-04-03T06:45:44.812Z,5.27
2023-04-03T06:46:46.563Z,5.31
2023-04-03T06:47:48.226Z,5.26
2023-04-03T06:48:50.607Z,5.14
2023-04-03T06:49:52.298Z,5.01
2023-04-03T06:50:54.476Z,4.96
2023-04-03T06:51:56.283Z,4.79
2023-04-03T06:52:57.835Z,4.71
2023-04-03T06:54:00.268Z,4.57
2023-04-03T06:55:01.795Z,4.25
2023-04-03T06:56:03.510Z,4.05
2023-04-03T06:57:05.555Z,4.03
2023-04-03T06:58:07.171Z,3.89
2023-04-03T06:59:09.998Z,3.93
2023-04-03T07:00:12.227Z,3.98
2023-04-03T07:01:16.378Z,3.94
2023-04-03T07:02:17.996Z,4.01
2023-04-03T07:03:19.546Z,4.28
2023-04-03T07:04:21.272Z,4.27
2023-04-03T07:05:23.055Z,4.22
2023-04-03T07:06:24.705Z,4.25
2023-04-03T07:07:26.261Z,4.19
2023-04-03T07:08:27.849Z,4.08
2023-04-03T07:09:29.450Z,4.09
2023-04-03T07:10:31.017Z,4.12
2023-04-03T07:11:32.638Z,4.17
2023-04-03T07:12:34.318Z,4.24
2023-04-03T07:13:36.320Z,4.17
2023-04-03T07:14:37.851Z,4.19
2023-04-03T07:15:39.600Z,4.44
2023-04-03T07:16:42.707Z,4.45
2023-04-03T07:17:44.597Z,4.42
2023-04-03T07:18:47.100Z,4.44
2023-04-03T07:19:48.640Z,4.49
2023-04-03T07:20:50.284Z,4.63
2023-04-03T07:21:51.888Z,4.79
2023-04-03T07:22:53.620Z,4.78
2023-04-03T07:23:55.658Z,4.83
2023-04-03T07:24:57.525Z,4.78
2023-04-03T07:25:59.428Z,4.73
2023-04-03T07:27:01.768Z,4.59
2023-04-03T07:28:03.549Z,4.45
2023-04-03T07:29:05.125Z,4.26
2023-04-03T07:30:07.291Z,4.11
2023-04-03T07:31:12.969Z,4.05
2023-04-03T07:32:15.491Z,3.87
2023-04-03T07:33:19.139Z,3.83
2023-04-03T07:34:20.729Z,3.86
2023-04-03T07:35:22.752Z,3.78
2023-04-03T07:36:24.643Z,3.71
2023-04-03T07:37:26.204Z,3.71
2023-04-03T07:38:27.916Z,3.71
2023-04-03T07:39:30.148Z,3.63
2023-04-03T07:40:31.934Z,3.60
2023-04-03T07:41:33.571Z,3.53
2023-04-03T07:42:35.830Z,3.45
2023-04-03T07:43:37.411Z,3.50
2023-04-03T07:44:39.234Z,3.39
2023-04-03T07:45:40.973Z,3.28
2023-04-03T07:46:42.731Z,3.29
2023-04-03T07:47:44.315Z,3.30
2023-04-03T07:48:45.863Z,3.35
2023-04-03T07:49:47.707Z,3.45
2023-04-03T07:50:49.374Z,3.40
2023-04-03T07:51:51.576Z,3.30
2023-04-03T07:52:53.121Z,3.34
2023-04-03T07:53:54.946Z,3.31
2023-04-03T07:54:56.463Z,3.30
2023-04-03T07:55:59.748Z,3.31
2023-04-03T07:57:01.525Z,3.42
2023-04-03T07:58:03.147Z,3.59
2023-04-03T07:59:04.657Z,3.87
2023-04-03T08:00:07.234Z,4.08
2023-04-03T08:01:13.636Z,4.28
2023-04-03T08:02:15.181Z,4.49
2023-04-03T08:03:17.042Z,4.52
2023-04-03T08:04:18.800Z,4.46
2023-04-03T08:05:21.616Z,4.63
2023-04-03T08:06:29.594Z,4.63
2023-04-03T08:07:34.811Z,4.68
2023-04-03T08:08:36.490Z,4.81
2023-04-03T08:09:38.075Z,4.84
2023-04-03T08:10:40.327Z,4.85
2023-04-03T08:11:42.630Z,4.93
2023-04-03T08:12:47.074Z,5.00
2023-04-03T08:13:48.661Z,5.01
2023-04-03T08:14:50.339Z,4.98
2023-04-03T08:15:52.356Z,4.90
2023-04-03T08:16:53.922Z,4.78
2023-04-03T08:17:55.697Z,4.80
2023-04-03T08:18:57.321Z,4.59
2023-04-03T08:19:58.946Z,4.50
2023-04-03T08:21:00.473Z,4.44
2023-04-03T08:22:02.329Z,4.52
2023-04-03T08:23:03.866Z,4.46
2023-04-03T08:24:05.559Z,4.49
2023-04-03T08:25:07.530Z,4.31
2023-04-03T08:26:12.642Z,4.41
2023-04-03T08:27:14.181Z,4.55
2023-04-03T08:28:15.713Z,4.71
2023-04-03T08:29:17.632Z,4.81
2023-04-03T08:30:19.276Z,4.80
2023-04-03T08:31:21.024Z,4.96
2023-04-03T08:32:22.735Z,5.18
2023-04-03T08:33:24.271Z,5.35
2023-04-03T08:34:25.856Z,5.38
2023-04-03T08:35:27.470Z,5.38
2023-04-03T08:36:30.684Z,5.24
2023-04-03T08:37:32.391Z,5.11
2023-04-03T08:38:34.882Z,5.13
2023-04-03T08:39:36.596Z,5.14
2023-04-03T08:40:38.873Z,5.17
2023-04-03T08:41:45.340Z,5.21
2023-04-03T08:43:16.912Z,5.21
2023-04-03T08:44:40.176Z,5.32
2023-04-03T08:45:56.732Z,5.51
2023-04-03T08:47:35.200Z,5.66
2023-04-03T08:48:43.504Z,5.78
2023-04-03T08:49:49.643Z,5.96
2023-04-03T08:50:55.563Z,6.02
2023-04-03T08:51:59.789Z,6.13
2023-04-03T08:53:03.413Z,6.09
2023-04-03T08:54:15.989Z,6.06
2023-04-03T08:55:25.724Z,5.97
2023-04-03T08:56:27.852Z,5.79
2023-04-03T08:57:45.698Z,5.69
2023-04-03T08:59:02.589Z,5.72
2023-04-03T09:00:15.166Z,5.69
2023-04-03T09:01:22.155Z,5.68
2023-04-03T09:02:30.068Z,5.74
2023-04-03T09:03:33.755Z,5.85
2023-04-03T09:04:35.343Z,5.82
2023-04-03T09:05:44.842Z,5.70
2023-04-03T09:06:58.688Z,5.69
2023-04-03T09:08:30.914Z,5.67
2023-04-03T09:09:43.102Z,5.71
2023-04-03T09:10:44.663Z,5.74
2023-04-03T09:11:58.158Z,5.69
2023-04-03T09:13:12.342Z,5.80
2023-04-03T09:14:33.925Z,5.82
2023-04-03T09:15:39.055Z,5.73
2023-04-03T09:17:09.393Z,5.66
2023-04-03T09:18:13.776Z,5.61
2023-04-03T09:19:33.815Z,5.71
2023-04-03T09:20:47.100Z,5.57
2023-04-03T09:21:48.897Z,5.60
2023-04-03T09:22:52.984Z,5.56
2023-04-03T09:23:59.701Z,5.51
2023-04-03T09:25:05.398Z,5.43
2023-04-03T09:26:14.158Z,5.43
2023-04-03T09:27:15.802Z,5.54
2023-04-03T09:28:17.481Z,5.55
2023-04-03T09:29:22.558Z,5.73
2023-04-03T09:30:26.648Z,5.68
2023-04-03T09:31:32.052Z,5.56
2023-04-03T09:32:36.522Z,5.62
2023-04-03T09:33:39.845Z,5.69
2023-04-03T09:34:42.925Z,5.84
2023-04-03T09:35:48.608Z,5.88
2023-04-03T09:36:53.253Z,5.94
2023-04-03T09:38:12.678Z,5.96
2023-04-03T09:39:20.866Z,6.04
2023-04-03T09:40:29.804Z,6.05
2023-04-03T09:41:31.358Z,5.99
2023-04-03T09:42:33.269Z,5.75
2023-04-03T09:43:38.023Z,5.68
2023-04-03T09:44:40.319Z,5.56
2023-04-03T09:45:41.848Z,5.51
2023-04-03T09:46:43.587Z,5.58
2023-04-03T09:47:45.526Z,5.57
2023-04-03T09:49:07.306Z,5.72
2023-04-03T09:50:13.728Z,5.91
2023-04-03T09:51:16.252Z,5.95
2023-04-03T09:52:26.354Z,6.13
2023-04-03T09:53:33.077Z,6.14
2023-04-03T09:54:38.897Z,6.04
2023-04-03T09:55:45.310Z,5.90
2023-04-03T09:56:52.025Z,5.80
2023-04-03T09:57:55.470Z,5.88
2023-04-03T09:58:59.792Z,6.00
2023-04-03T10:00:02.785Z,6.13
2023-04-03T10:01:21.087Z,6.26
2023-04-03T10:02:40.433Z,6.27
2023-04-03T10:03:42.572Z,6.00
2023-04-03T10:04:44.342Z,5.90
2023-04-03T10:05:46.530Z,5.97
2023-04-03T10:06:50.883Z,5.87
2023-04-03T10:07:58.274Z,5.75
2023-04-03T10:09:25.323Z,5.71
2023-04-03T10:10:26.969Z,5.68
2023-04-03T10:11:28.580Z,5.74
2023-04-03T10:12:30.532Z,5.82
2023-04-03T10:13:36.267Z,5.87
2023-04-03T10:15:03.867Z,6.04
2023-04-03T10:16:15.889Z,6.03
2023-04-03T10:17:32.343Z,5.98
2023-04-03T10:18:46.811Z,5.93
2023-04-03T10:19:54.981Z,6.09
2023-04-03T10:21:04.205Z,6.15
2023-04-03T10:22:21.621Z,6.30
2023-04-03T10:23:30.082Z,6.35
2023-04-03T10:24:48.471Z,6.56
2023-04-03T10:26:01.081Z,6.58
2023-04-03T10:27:16.911Z,6.64
2023-04-03T10:28:40.873Z,6.87
2023-04-03T10:29:58.854Z,6.99
2023-04-03T10:31:29.402Z,6.77
2023-04-03T10:32:55.939Z,6.29
2023-04-03T10:34:06.466Z,6.08
2023-04-03T10:35:21.231Z,6.00
2023-04-03T10:36:46.550Z,5.82
2023-04-03T10:37:51.053Z,5.63
2023-04-03T10:39:04.271Z,5.41
2023-04-03T10:40:24.857Z,5.42
2023-04-03T10:41:51.492Z,5.29
2023-04-03T10:43:04.873Z,5.16
2023-04-03T10:44:17.076Z,5.09
2023-04-03T10:45:25.494Z,5.01
2023-04-03T10:46:35.221Z,5.23
2023-04-03T10:47:55.563Z,5.23
2023-04-03T10:49:02.933Z,5.18
2023-04-03T10:50:38.318Z,5.02
2023-04-03T10:51:45.782Z,4.89
2023-04-03T10:53:04.534Z,4.95
2023-04-03T10:54:17.953Z,4.98
2023-04-03T10:55:35.774Z,4.89
2023-04-03T10:57:01.333Z,4.83
2023-04-03T10:58:25.368Z,4.91
2023-04-03T10:59:53.264Z,4.95
2023-04-03T11:00:59.665Z,4.94
2023-04-03T11:02:23.204Z,5.01
2023-04-03T11:03:32.928Z,5.12
2023-04-03T11:04:40.637Z,5.29
2023-04-03T11:05:47.221Z,5.32
2023-04-03T11:06:59.176Z,5.45
2023-04-03T11:08:09.061Z,5.48
2023-04-03T11:09:26.933Z,5.46
2023-04-03T11:10:51.003Z,5.49
2023-04-03T11:11:57.611Z,5.69
2023-04-03T11:13:14.317Z,5.91
2023-04-03T11:14:26.890Z,6.11
2023-04-03T11:15:31.390Z,6.12
2023-04-03T11:16:50.983Z,5.94
2023-04-03T11:18:09.707Z,5.88
2023-04-03T11:19:30.050Z,5.98
2023-04-03T11:20:34.518Z,6.07
2023-04-03T11:21:44.007Z,6.29
2023-04-03T11:23:15.594Z,6.49
2023-04-03T11:24:25.843Z,6.52
2023-04-03T11:25:30.354Z,6.48
2023-04-03T11:26:39.766Z,6.22
2023-04-03T11:27:50.313Z,5.97
2023-04-03T11:29:02.979Z,6.01
2023-04-03T11:30:10.931Z,6.06
2023-04-03T11:31:40.457Z,6.18
2023-04-03T11:33:06.046Z,6.08
2023-04-03T11:34:23.035Z,6.01
2023-04-03T11:35:26.809Z,6.01
2023-04-03T11:36:43.670Z,6.05
2023-04-03T11:37:53.533Z,6.06
2023-04-03T11:38:59.894Z,6.17
2023-04-03T11:40:22.339Z,6.26
2023-04-03T11:41:30.336Z,6.32
2023-04-03T11:42:37.926Z,6.46
2023-04-03T11:43:56.031Z,6.50
2023-04-03T11:45:36.806Z,6.46
2023-04-03T11:46:59.415Z,5.91
2023-04-03T11:48:30.219Z,5.87
2023-04-03T11:49:58.283Z,6.01
2023-04-03T11:51:15.428Z,5.96
2023-04-03T11:52:44.352Z,5.88
2023-04-03T11:53:46.258Z,5.91
2023-04-03T11:54:49.185Z,6.02
2023-04-03T11:55:50.708Z,6.12
2023-04-03T11:56:52.326Z,6.19
2023-04-03T11:57:59.598Z,6.22
2023-04-03T11:59:13.359Z,6.28
2023-04-03T12:00:45.600Z,6.31
2023-04-03T12:01:47.145Z,6.13
2023-04-03T12:02:54.250Z,5.99
2023-04-03T12:04:08.095Z,5.86
2023-04-03T12:05:29.110Z,5.79
2023-04-03T12:06:33.138Z,5.71
2023-04-03T12:07:34.771Z,5.65
2023-04-03T12:08:41.880Z,5.57
2023-04-03T12:09:43.433Z,5.50
2023-04-03T12:11:10.818Z,5.65
2023-04-03T12:12:31.995Z,5.77
2023-04-03T12:13:33.645Z,5.86
2023-04-03T12:14:44.074Z,6.01
2023-04-03T12:15:53.050Z,6.07
2023-04-03T12:16:56.347Z,5.99
2023-04-03T12:17:57.934Z,5.82
2023-04-03T12:19:02.342Z,5.70
2023-04-03T12:20:47.300Z,5.59
2023-04-03T12:21:48.802Z,5.53
2023-04-03T12:23:24.385Z,5.43
2023-04-03T12:24:27.004Z,5.37
2023-04-03T12:26:02.583Z,5.56
2023-04-03T12:27:14.827Z,5.77
2023-04-03T12:28:16.574Z,5.93
2023-04-03T12:29:25.390Z,6.02
2023-04-03T12:30:30.441Z,6.22
2023-04-03T12:31:46.802Z,6.28
2023-04-03T12:33:27.647Z,6.17
2023-04-03T12:34:44.361Z,6.02
2023-04-03T12:35:54.856Z,5.97
2023-04-03T12:37:10.178Z,5.90
2023-04-03T12:38:36.572Z,5.74
2023-04-03T12:39:56.128Z,5.68
2023-04-03T12:41:27.071Z,5.56
2023-04-03T12:42:40.609Z,5.61
2023-04-03T12:43:49.914Z,5.54
2023-04-03T12:44:57.388Z,5.37
2023-04-03T12:46:07.758Z,5.34
2023-04-03T12:47:23.540Z,5.51
2023-04-03T12:48:27.884Z,5.72
2023-04-03T12:49:42.098Z,5.90
2023-04-03T12:50:47.283Z,5.91
2023-04-03T12:51:49.189Z,5.73
2023-04-03T12:53:05.263Z,5.64
2023-04-03T12:54:28.161Z,5.70
2023-04-03T12:55:29.744Z,5.93
2023-04-03T12:56:33.619Z,6.07
2023-04-03T12:57:35.510Z,6.06
2023-04-03T12:58:37.051Z,6.02
2023-04-03T12:59:38.729Z,6.00
2023-04-03T13:00:40.348Z,5.99
2023-04-03T13:01:41.984Z,5.94
2023-04-03T13:02:46.028Z,5.88
2023-04-03T13:03:58.204Z,5.89
2023-04-03T13:05:07.790Z,6.06
2023-04-03T13:06:19.001Z,6.21
2023-04-03T13:07:27.680Z,6.42
2023-04-03T13:08:29.469Z,6.50
2023-04-03T13:09:32.438Z,6.50
2023-04-03T13:10:48.866Z,6.24
2023-04-03T13:11:56.723Z,6.08
2023-04-03T13:13:10.645Z,5.90
2023-04-03T13:14:20.782Z,5.68
2023-04-03T13:15:29.581Z,5.67
2023-04-03T13:16:31.696Z,5.66
2023-04-03T13:17:33.323Z,5.67
2023-04-03T13:18:36.872Z,5.77
2023-04-03T13:19:38.608Z,5.88
2023-04-03T13:20:40.437Z,5.96
2023-04-03T13:21:42.643Z,6.11
2023-04-03T13:23:09.417Z,6.15
2023-04-03T13:24:15.690Z,6.18
2023-04-03T13:25:20.480Z,6.13
2023-04-03T13:26:24.945Z,6.07
2023-04-03T13:27:27.101Z,5.96
2023-04-03T13:28:28.978Z,5.85
2023-04-03T13:29:37.186Z,5.91
2023-04-03T13:30:40.882Z,5.94
2023-04-03T13:31:42.594Z,5.98
2023-04-03T13:32:44.627Z,6.07
2023-04-03T13:34:06.576Z,6.10
2023-04-03T13:35:31.044Z,6.08
2023-04-03T13:36:36.529Z,5.98
2023-04-03T13:37:38.244Z,5.73
2023-04-03T13:38:39.842Z,5.58
2023-04-03T13:39:41.387Z,5.53
2023-04-03T13:40:54.756Z,5.55
2023-04-03T13:42:01.712Z,5.51
2023-04-03T13:43:17.665Z,5.53
2023-04-03T13:44:21.968Z,5.58
2023-04-03T13:45:29.775Z,5.67
2023-04-03T13:46:31.534Z,5.77
2023-04-03T13:47:40.760Z,5.75
2023-04-03T13:48:48.232Z,5.72
2023-04-03T13:50:13.565Z,5.68
2023-04-03T13:51:15.029Z,5.71
2023-04-03T13:52:22.864Z,5.68
2023-04-03T13:53:25.912Z,5.76
2023-04-03T13:54:37.229Z,5.83
2023-04-03T13:55:56.350Z,5.84
2023-04-03T13:56:59.632Z,5.67
2023-04-03T13:58:10.357Z,5.60
2023-04-03T13:59:14.755Z,5.55
2023-04-03T14:00:31.136Z,5.51
2023-04-03T14:01:41.060Z,5.51
2023-04-03T14:02:42.733Z,5.51
2023-04-03T14:03:54.286Z,5.65
2023-04-03T14:04:59.420Z,5.74
2023-04-03T14:06:01.857Z,5.75
2023-04-03T14:07:03.905Z,5.79
2023-04-03T14:08:05.517Z,5.81
2023-04-03T14:09:07.033Z,5.80
2023-04-03T14:10:09.045Z,5.68
2023-04-03T14:11:19.965Z,5.71
2023-04-03T14:12:33.423Z,5.78
2023-04-03T14:13:34.989Z,5.90
2023-04-03T14:14:37.938Z,6.01
2023-04-03T14:15:39.692Z,6.04
2023-04-03T14:16:44.908Z,5.93
2023-04-03T14:17:46.718Z,5.75
2023-04-03T14:18:49.553Z,5.64
2023-04-03T14:19:52.906Z,5.57
2023-04-03T14:20:54.418Z,5.49
2023-04-03T14:21:56.942Z,5.46
2023-04-03T14:22:58.506Z,5.51
2023-04-03T14:24:00.108Z,5.54
2023-04-03T14:25:03.016Z,5.63
2023-04-03T14:27:34.173Z,5.66
2023-04-03T14:28:36.098Z,5.62
2023-04-03T14:29:37.622Z,5.61
2023-04-03T14:30:39.534Z,5.56
2023-04-03T14:31:43.366Z,5.59
2023-04-03T14:32:45.695Z,5.68
2023-04-03T14:33:48.016Z,5.66
2023-04-03T14:34:50.882Z,5.65
2023-04-03T14:35:52.969Z,5.64